»·PEaware :: DFGCW KCDC-KLAS

DFGCW :: KCDC-KLAS

FLIGHT INFORMATION

Flight Status: Arrived
Operator: Unknown
More flights by this operator :: More flights under this callsign
Pilot: Klaus A. (15485)
Aircraft: PILATUS PC-12 EAGLE
(PC12)
More flights by this aircraft type
Origin: KCDC Cedar City Regl
United States
Destination: KLAS McCarran Intl
United States
More flights between these airports :: More routes between these airports
Route: +EHK V293 BERYL V21 LAPIN V562 LAS
File this flight plan on PilotEdge
Remarks: DEP. via ODP RWY 2
Altitude:
(Current/Filed)
16,000ft
Speed:
(Current/Filed)
270kts
Departed: 12-Nov-19 09:57 AM
Arrived: 12-Nov-19 10:43 AM
Distance/Time
Traveled:
139nm/0:45
Distance/Time
To Go:
Arrived

Flight Plot

Page will automatically refresh every two minutes.

Flight plan parsing failed; only flown route is shown


Map Options




Map Legend


Flown Route
Filed Route
Departure Airport
Arrival Airport
Navaid (VOR, NDB)
Fix

Horizontal Profiles

Position Reports

Time Latitude Longitude Heading Altitude Ground
Speed
12-Nov-19 09:29 37.700342 -113.090579 186 5626ft 0kts
12-Nov-19 09:30 37.700342 -113.090579 186 5626ft 0kts
12-Nov-19 09:31 37.700342 -113.090579 186 5626ft 0kts
12-Nov-19 09:32 37.700342 -113.090579 186 5626ft 0kts
12-Nov-19 09:33 37.700341 -113.090579 186 5626ft 0kts
12-Nov-19 09:34 37.700341 -113.090579 186 5626ft 0kts
12-Nov-19 09:35 37.700341 -113.090579 186 5626ft 0kts
12-Nov-19 09:36 37.700341 -113.090579 186 5626ft 0kts
12-Nov-19 09:37 37.700341 -113.090579 186 5626ft 0kts
12-Nov-19 09:38 37.700341 -113.090579 186 5626ft 0kts
12-Nov-19 09:39 37.700341 -113.090579 186 5626ft 0kts
12-Nov-19 09:40 37.700341 -113.090579 186 5626ft 0kts
12-Nov-19 09:41 37.700341 -113.090579 186 5626ft 0kts
12-Nov-19 09:42 37.700341 -113.090579 186 5626ft 0kts
12-Nov-19 09:43 37.700341 -113.090579 186 5626ft 0kts
12-Nov-19 09:44 37.700274 -113.090622 244 5626ft 2kts
12-Nov-19 09:45 37.700398 -113.092574 267 5626ft 10kts
12-Nov-19 09:46 37.697337 -113.095265 229 5626ft 16kts
12-Nov-19 09:47 37.696043 -113.101092 260 5626ft 18kts
12-Nov-19 09:48 37.691888 -113.105131 213 5626ft 20kts
12-Nov-19 09:49 37.690226 -113.106905 300 5626ft 0kts
12-Nov-19 09:50 37.690226 -113.106905 300 5626ft 0kts
12-Nov-19 09:51 37.690226 -113.106905 300 5626ft 0kts
12-Nov-19 09:52 37.690226 -113.106905 300 5626ft 0kts
12-Nov-19 09:53 37.690226 -113.106905 300 5626ft 0kts
12-Nov-19 09:54 37.690226 -113.106905 300 5626ft 0kts
12-Nov-19 09:55 37.690239 -113.106934 300 5626ft 1kts
12-Nov-19 09:56 37.698024 -113.101487 35 5765ft 107kts
12-Nov-19 09:57 37.728828 -113.085197 4 7184ft 141kts
12-Nov-19 09:58 37.767834 -113.075387 11 9018ft 149kts
12-Nov-19 09:59 37.794197 -113.100800 287 10752ft 138kts
12-Nov-19 10:00 37.811620 -113.145084 296 12256ft 144kts
12-Nov-19 10:01 37.829898 -113.189290 296 13730ft 142kts
12-Nov-19 10:02 37.845271 -113.233973 298 15202ft 135kts
12-Nov-19 10:03 37.861262 -113.279818 297 15993ft 171kts
12-Nov-19 10:04 37.883850 -113.344777 296 16002ft 222kts
12-Nov-19 10:05 37.880855 -113.417934 213 16008ft 262kts
12-Nov-19 10:06 37.817030 -113.465232 215 15998ft 268kts
12-Nov-19 10:07 37.753995 -113.516056 216 15998ft 270kts
12-Nov-19 10:08 37.690855 -113.567686 216 15998ft 270kts
12-Nov-19 10:09 37.627811 -113.619282 216 15998ft 271kts
12-Nov-19 10:10 37.584809 -113.654401 215 16005ft 271kts
12-Nov-19 10:11 37.527840 -113.700609 216 16007ft 271kts
12-Nov-19 10:12 37.464394 -113.752210 216 16007ft 272kts
12-Nov-19 10:13 37.400675 -113.803972 216 16007ft 272kts
12-Nov-19 10:14 37.336800 -113.855764 216 15981ft 273kts
12-Nov-19 10:16 37.273009 -113.907381 216 15980ft 273kts
12-Nov-19 10:17 37.207102 -113.954232 207 15981ft 275kts
12-Nov-19 10:18 37.137140 -113.993769 207 15981ft 275kts
12-Nov-19 10:19 37.069123 -114.036876 218 15987ft 272kts
12-Nov-19 10:20 37.006409 -114.090072 215 15982ft 273kts
12-Nov-19 10:21 36.942350 -114.140786 215 15999ft 273kts
12-Nov-19 10:22 36.877847 -114.191676 215 15994ft 274kts
12-Nov-19 10:23 36.813445 -114.242319 215 15994ft 273kts
12-Nov-19 10:24 36.749301 -114.292988 215 15995ft 273kts
12-Nov-19 10:25 36.685109 -114.343629 215 15995ft 273kts
12-Nov-19 10:26 36.619379 -114.392224 214 15664ft 278kts
12-Nov-19 10:27 36.553648 -114.442257 214 14164ft 276kts
12-Nov-19 10:28 36.488713 -114.491640 214 12985ft 269kts
12-Nov-19 10:29 36.426294 -114.539049 214 12978ft 259kts
12-Nov-19 10:30 36.365280 -114.585308 214 12979ft 256kts
12-Nov-19 10:31 36.303662 -114.633973 215 11912ft 263kts
12-Nov-19 10:32 36.246983 -114.680323 215 10390ft 231kts
12-Nov-19 10:33 36.195927 -114.723284 215 9101ft 214kts
12-Nov-19 10:34 36.149476 -114.763078 222 8052ft 212kts
12-Nov-19 10:34 36.145761 -114.818751 272 7370ft 196kts
12-Nov-19 10:36 36.149225 -114.896270 272 6075ft 192kts
12-Nov-19 10:37 36.151636 -114.960705 272 5465ft 168kts
12-Nov-19 10:37 36.153327 -115.009702 272 5478ft 172kts
12-Nov-19 10:38 36.155413 -115.068447 272 5481ft 169kts
12-Nov-19 10:40 36.156115 -115.135729 248 5271ft 166kts
12-Nov-19 10:40 36.124968 -115.145133 183 3417ft 146kts
12-Nov-19 10:41 36.094373 -115.159444 204 2187ft 84kts
12-Nov-19 10:42 36.089360 -115.163371 295 2186ft 0kts
12-Nov-19 10:43 36.089360 -115.163371 295 2186ft 0kts
12-Nov-19 10:44 36.089551 -115.164332 261 2186ft 8kts
12-Nov-19 10:45 36.086975 -115.166191 248 2186ft 11kts
12-Nov-19 10:46 36.087017 -115.166571 290 2186ft 0kts
12-Nov-19 10:47 36.087017 -115.166571 290 2186ft 0kts

Navigation Log

Ident Type
Flight plan parsing failed, navigation log unavailable